createdAt,value
2023-03-17T00:00:32.865Z,7.22
2023-03-17T00:01:32.672Z,7.20
2023-03-17T00:02:32.729Z,7.19
2023-03-17T00:03:32.658Z,7.22
2023-03-17T00:04:32.650Z,7.22
2023-03-17T00:05:32.632Z,7.23
2023-03-17T00:06:32.629Z,7.24
2023-03-17T00:07:32.599Z,7.29
2023-03-17T00:08:32.580Z,7.26
2023-03-17T00:09:32.595Z,7.31
2023-03-17T00:10:33.118Z,7.31
2023-03-17T00:11:32.580Z,7.31
2023-03-17T00:12:32.551Z,7.35
2023-03-17T00:13:32.544Z,7.34
2023-03-17T00:14:32.559Z,7.37
2023-03-17T00:15:32.537Z,7.34
2023-03-17T00:16:32.538Z,7.32
2023-03-17T00:17:32.451Z,7.32
2023-03-17T00:18:32.511Z,7.31
2023-03-17T00:19:32.489Z,7.32
2023-03-17T00:20:32.552Z,7.31
2023-03-17T00:21:32.453Z,7.34
2023-03-17T00:22:32.460Z,7.31
2023-03-17T00:23:32.432Z,7.27
2023-03-17T00:24:32.441Z,7.27
2023-03-17T00:25:32.428Z,7.26
2023-03-17T00:26:32.405Z,7.23
2023-03-17T00:27:32.373Z,7.22
2023-03-17T00:28:32.379Z,7.20
2023-03-17T00:29:32.387Z,7.17
2023-03-17T00:30:32.776Z,7.19
2023-03-17T00:31:32.375Z,7.19
2023-03-17T00:32:32.384Z,7.20
2023-03-17T00:33:32.328Z,7.20
2023-03-17T00:34:32.314Z,7.19
2023-03-17T00:35:32.326Z,7.20
2023-03-17T00:36:32.248Z,7.23
2023-03-17T00:37:32.283Z,7.24
2023-03-17T00:38:32.268Z,7.24
2023-03-17T00:39:32.258Z,7.26
2023-03-17T00:40:32.623Z,7.31
2023-03-17T00:41:32.224Z,7.29
2023-03-17T00:42:32.231Z,7.27
2023-03-17T00:43:32.212Z,7.31
2023-03-17T00:44:32.247Z,7.32
2023-03-17T00:45:32.177Z,7.31
2023-03-17T00:46:32.197Z,7.32
2023-03-17T00:47:32.179Z,7.34
2023-03-17T00:48:32.184Z,7.34
2023-03-17T00:49:32.150Z,7.34
2023-03-17T00:50:32.661Z,7.34
2023-03-17T00:51:32.162Z,7.34
2023-03-17T00:52:32.125Z,7.35
2023-03-17T00:53:32.170Z,7.34
2023-03-17T00:54:32.106Z,7.35
2023-03-17T00:55:32.091Z,7.35
2023-03-17T00:56:32.083Z,7.37
2023-03-17T00:57:32.093Z,7.35
2023-03-17T00:58:32.025Z,7.38
2023-03-17T00:59:32.058Z,7.37
2023-03-17T01:00:32.498Z,7.40
2023-03-17T01:01:32.043Z,7.38
2023-03-17T01:02:32.035Z,7.37
2023-03-17T01:03:32.003Z,7.37
2023-03-17T01:04:31.987Z,7.37
2023-03-17T01:05:31.966Z,7.34
2023-03-17T01:06:31.986Z,7.35
2023-03-17T01:07:31.970Z,7.34
2023-03-17T01:08:31.974Z,7.34
2023-03-17T01:09:31.934Z,7.32
2023-03-17T01:10:32.322Z,7.29
2023-03-17T01:11:31.919Z,7.31
2023-03-17T01:12:31.911Z,7.27
2023-03-17T01:13:31.921Z,7.27
2023-03-17T01:14:31.897Z,7.27
2023-03-17T01:15:31.870Z,7.29
2023-03-17T01:16:31.944Z,7.29
2023-03-17T01:17:31.840Z,7.34
2023-03-17T01:18:31.865Z,7.34
2023-03-17T01:19:31.789Z,7.34
2023-03-17T01:20:32.296Z,7.32
2023-03-17T01:21:31.791Z,7.27
2023-03-17T01:22:31.820Z,7.24
2023-03-17T01:23:31.806Z,7.20
2023-03-17T01:24:31.785Z,7.24
2023-03-17T01:25:31.816Z,7.23
2023-03-17T01:26:31.819Z,7.20
2023-03-17T01:27:31.777Z,7.17
2023-03-17T01:28:31.769Z,7.13
2023-03-17T01:29:31.717Z,7.08
2023-03-17T01:30:32.173Z,7.12
2023-03-17T01:31:31.778Z,7.09
2023-03-17T01:32:31.755Z,7.07
2023-03-17T01:33:31.713Z,7.05
2023-03-17T01:34:31.686Z,7.02
2023-03-17T01:35:31.837Z,7.02
2023-03-17T01:36:39.168Z,6.98
2023-03-17T01:37:31.653Z,6.97
2023-03-17T01:38:31.676Z,6.95
2023-03-17T01:39:31.649Z,6.91
2023-03-17T01:40:32.288Z,6.90
2023-03-17T01:41:31.632Z,6.90
2023-03-17T01:42:31.625Z,6.91
2023-03-17T01:43:31.587Z,6.94
2023-03-17T01:44:31.548Z,6.95
2023-03-17T01:45:31.635Z,6.97
2023-03-17T01:46:31.508Z,6.98
2023-03-17T01:47:31.537Z,6.99
2023-03-17T01:48:31.552Z,7.01
2023-03-17T01:49:31.538Z,7.02
2023-03-17T01:50:31.750Z,6.99
2023-03-17T01:51:31.492Z,6.97
2023-03-17T01:52:31.508Z,6.95
2023-03-17T01:53:31.505Z,6.97
2023-03-17T01:54:31.468Z,6.98
2023-03-17T01:55:31.453Z,6.97
2023-03-17T01:56:31.478Z,6.97
2023-03-17T01:57:31.523Z,6.97
2023-03-17T01:58:31.420Z,6.95
2023-03-17T01:59:31.432Z,6.98
2023-03-17T02:00:32.016Z,6.99
2023-03-17T02:01:31.411Z,7.07
2023-03-17T02:02:31.392Z,7.08
2023-03-17T02:03:31.397Z,7.07
2023-03-17T02:04:31.510Z,7.08
2023-03-17T02:05:31.383Z,7.12
2023-03-17T02:06:31.368Z,7.09
2023-03-17T02:07:31.339Z,7.12
2023-03-17T02:08:31.327Z,7.13
2023-03-17T02:09:31.326Z,7.12
2023-03-17T02:10:31.670Z,7.09
2023-03-17T02:11:31.307Z,7.09
2023-03-17T02:12:31.294Z,7.07
2023-03-17T02:13:31.326Z,7.08
2023-03-17T02:14:31.264Z,7.08
2023-03-17T02:15:31.255Z,7.07
2023-03-17T02:16:31.251Z,7.05
2023-03-17T02:17:31.229Z,7.04
2023-03-17T02:18:31.242Z,7.01
2023-03-17T02:19:31.200Z,7.02
2023-03-17T02:20:31.703Z,7.01
2023-03-17T02:21:31.145Z,7.02
2023-03-17T02:22:31.194Z,7.05
2023-03-17T02:23:31.181Z,7.08
2023-03-17T02:24:31.224Z,7.09
2023-03-17T02:25:31.133Z,7.07
2023-03-17T02:26:31.186Z,7.02
2023-03-17T02:27:31.168Z,7.02
2023-03-17T02:28:31.125Z,6.99
2023-03-17T02:29:31.126Z,6.97
2023-03-17T02:30:31.419Z,6.95
2023-03-17T02:31:31.107Z,6.97
2023-03-17T02:32:31.150Z,6.94
2023-03-17T02:33:31.085Z,6.90
2023-03-17T02:34:31.103Z,6.95
2023-03-17T02:35:31.186Z,6.91
2023-03-17T02:36:31.072Z,6.89
2023-03-17T02:37:31.050Z,6.86
2023-03-17T02:38:31.008Z,6.87
2023-03-17T02:39:30.987Z,6.87
2023-03-17T02:40:31.458Z,6.84
2023-03-17T02:41:30.982Z,6.89
2023-03-17T02:42:30.977Z,6.89
2023-03-17T02:43:30.965Z,6.95
2023-03-17T02:44:30.951Z,6.97
2023-03-17T02:45:30.951Z,6.95
2023-03-17T02:46:30.954Z,6.98
2023-03-17T02:47:30.902Z,6.94
2023-03-17T02:48:30.908Z,6.91
2023-03-17T02:49:30.907Z,6.87
2023-03-17T02:50:39.910Z,6.84
2023-03-17T02:51:30.897Z,6.86
2023-03-17T02:52:30.878Z,6.83
2023-03-17T02:53:30.864Z,6.83
2023-03-17T02:54:30.860Z,6.81
2023-03-17T02:55:30.828Z,6.80
2023-03-17T02:56:30.841Z,6.80
2023-03-17T02:57:30.828Z,6.84
2023-03-17T02:58:30.804Z,6.87
2023-03-17T02:59:30.807Z,6.89
2023-03-17T03:00:31.099Z,6.91
2023-03-17T03:01:30.972Z,6.89
2023-03-17T03:02:30.845Z,6.90
2023-03-17T03:03:30.780Z,6.97
2023-03-17T03:04:30.774Z,6.98
2023-03-17T03:05:30.760Z,6.95
2023-03-17T03:06:30.705Z,6.90
2023-03-17T03:07:30.757Z,6.90
2023-03-17T03:08:30.693Z,6.86
2023-03-17T03:09:30.711Z,6.84
2023-03-17T03:10:30.926Z,6.86
2023-03-17T03:11:30.683Z,6.84
2023-03-17T03:12:30.644Z,6.81
2023-03-17T03:13:30.670Z,6.80
2023-03-17T03:14:30.702Z,6.79
2023-03-17T03:15:30.634Z,6.76
2023-03-17T03:16:30.599Z,6.77
2023-03-17T03:17:30.615Z,6.79
2023-03-17T03:18:30.676Z,6.80
2023-03-17T03:19:30.576Z,6.79
2023-03-17T03:20:30.927Z,6.76
2023-03-17T03:21:30.593Z,6.76
2023-03-17T03:22:30.576Z,6.72
2023-03-17T03:23:30.692Z,6.73
2023-03-17T03:24:30.524Z,6.73
2023-03-17T03:25:30.557Z,6.68
2023-03-17T03:26:30.498Z,6.68
2023-03-17T03:27:30.503Z,6.61
2023-03-17T03:28:30.522Z,6.61
2023-03-17T03:29:30.502Z,6.58
2023-03-17T03:30:30.646Z,6.53
2023-03-17T03:31:30.961Z,6.48
2023-03-17T03:32:30.514Z,6.46
2023-03-17T03:33:30.453Z,6.44
2023-03-17T03:34:30.427Z,6.43
2023-03-17T03:35:30.423Z,6.43
2023-03-17T03:36:30.426Z,6.41
2023-03-17T03:37:30.434Z,6.44
2023-03-17T03:38:30.421Z,6.44
2023-03-17T03:39:30.386Z,6.47
2023-03-17T03:40:30.662Z,6.48
2023-03-17T03:41:30.352Z,6.50
2023-03-17T03:42:30.358Z,6.50
2023-03-17T03:43:30.410Z,6.53
2023-03-17T03:44:30.477Z,6.62
2023-03-17T03:45:30.321Z,6.68
2023-03-17T03:46:30.460Z,6.66
2023-03-17T03:47:30.294Z,6.65
2023-03-17T03:48:30.415Z,6.65
2023-03-17T03:49:30.259Z,6.66
2023-03-17T03:50:31.310Z,6.66
2023-03-17T03:51:30.279Z,6.69
2023-03-17T03:52:30.491Z,6.72
2023-03-17T03:53:30.234Z,6.71
2023-03-17T03:54:30.909Z,6.76
2023-03-17T03:55:30.191Z,6.79
2023-03-17T03:56:30.515Z,6.76
2023-03-17T03:57:30.194Z,6.76
2023-03-17T03:58:30.157Z,6.76
2023-03-17T03:59:30.182Z,6.77
2023-03-17T04:00:30.340Z,6.77
2023-03-17T04:01:30.152Z,6.80
2023-03-17T04:02:30.171Z,6.81
2023-03-17T04:03:30.111Z,6.79
2023-03-17T04:04:39.150Z,6.80
2023-03-17T04:05:30.111Z,6.80
2023-03-17T04:06:30.119Z,6.79
2023-03-17T04:07:30.078Z,6.79
2023-03-17T04:08:30.071Z,6.80
2023-03-17T04:09:30.076Z,6.80
2023-03-17T04:10:30.343Z,6.81
2023-03-17T04:11:30.031Z,6.81
2023-03-17T04:12:30.009Z,6.80
2023-03-17T04:13:29.972Z,6.81
2023-03-17T04:14:30.020Z,6.80
2023-03-17T04:15:29.980Z,6.77
2023-03-17T04:16:30.096Z,6.80
2023-03-17T04:17:29.998Z,6.80
2023-03-17T04:18:29.962Z,6.81
2023-03-17T04:19:29.982Z,6.80
2023-03-17T04:20:30.276Z,6.80
2023-03-17T04:21:29.927Z,6.80
2023-03-17T04:22:29.904Z,6.79
2023-03-17T04:23:29.966Z,6.84
2023-03-17T04:24:29.957Z,6.87
2023-03-17T04:25:29.910Z,6.89
2023-03-17T04:26:29.863Z,6.89
2023-03-17T04:27:29.868Z,6.91
2023-03-17T04:28:29.927Z,6.91
2023-03-17T04:29:29.851Z,6.91
2023-03-17T04:30:30.200Z,6.90
2023-03-17T04:31:29.891Z,6.90
2023-03-17T04:32:29.863Z,6.89
2023-03-17T04:33:29.817Z,6.86
2023-03-17T04:34:29.813Z,6.86
2023-03-17T04:35:29.769Z,6.83
2023-03-17T04:36:29.805Z,6.83
2023-03-17T04:37:29.745Z,6.83
2023-03-17T04:38:29.694Z,6.83
2023-03-17T04:39:29.798Z,6.84
2023-03-17T04:40:30.085Z,6.81
2023-03-17T04:41:29.751Z,6.86
2023-03-17T04:42:29.706Z,6.86
2023-03-17T04:43:29.711Z,6.87
2023-03-17T04:44:29.671Z,6.91
2023-03-17T04:45:29.702Z,6.97
2023-03-17T04:46:29.676Z,6.98
2023-03-17T04:47:29.653Z,6.99
2023-03-17T04:48:29.656Z,7.02
2023-03-17T04:49:29.622Z,7.05
2023-03-17T04:50:29.873Z,7.07
2023-03-17T04:51:29.636Z,7.05
2023-03-17T04:52:29.582Z,7.01
2023-03-17T04:53:29.589Z,7.02
2023-03-17T04:54:29.584Z,7.01
2023-03-17T04:55:29.565Z,7.01
2023-03-17T04:56:31.723Z,6.98
2023-03-17T04:57:29.544Z,6.99
2023-03-17T04:58:31.145Z,6.98
2023-03-17T04:59:29.552Z,6.98
2023-03-17T05:00:29.828Z,6.97
2023-03-17T05:01:29.516Z,6.91
2023-03-17T05:02:29.523Z,6.90
2023-03-17T05:03:29.486Z,6.87
2023-03-17T05:04:31.902Z,6.86
2023-03-17T05:05:29.521Z,6.84
2023-03-17T05:06:29.447Z,6.86
2023-03-17T05:07:29.461Z,6.83
2023-03-17T05:08:29.419Z,6.81
2023-03-17T05:09:29.440Z,6.80
2023-03-17T05:10:29.607Z,6.81
2023-03-17T05:11:29.446Z,6.77
2023-03-17T05:12:29.369Z,6.77
2023-03-17T05:13:29.372Z,6.76
2023-03-17T05:14:29.410Z,6.73
2023-03-17T05:15:29.328Z,6.77
2023-03-17T05:16:29.310Z,6.73
2023-03-17T05:17:29.279Z,6.73
2023-03-17T05:18:29.284Z,6.73
2023-03-17T05:19:36.803Z,6.72
2023-03-17T05:20:29.439Z,6.71
2023-03-17T05:21:29.264Z,6.69
2023-03-17T05:22:29.213Z,6.69
2023-03-17T05:23:29.224Z,6.68
2023-03-17T05:24:29.187Z,6.65
2023-03-17T05:25:29.354Z,6.65
2023-03-17T05:26:29.206Z,6.66
2023-03-17T05:27:29.193Z,6.68
2023-03-17T05:28:29.186Z,6.66
2023-03-17T05:29:29.152Z,6.73
2023-03-17T05:30:29.681Z,6.72
2023-03-17T05:31:29.156Z,6.66
2023-03-17T05:32:29.137Z,6.66
2023-03-17T05:33:29.100Z,6.62
2023-03-17T05:34:29.117Z,6.63
2023-03-17T05:35:29.082Z,6.62
2023-03-17T05:36:29.098Z,6.59
2023-03-17T05:37:29.080Z,6.56
2023-03-17T05:38:29.047Z,6.53
2023-03-17T05:39:29.251Z,6.53
2023-03-17T05:40:29.393Z,6.53
2023-03-17T05:41:29.135Z,6.51
2023-03-17T05:42:29.119Z,6.50
2023-03-17T05:43:29.040Z,6.51
2023-03-17T05:44:28.997Z,6.54
2023-03-17T05:45:28.983Z,6.51
2023-03-17T05:46:29.062Z,6.54
2023-03-17T05:47:29.001Z,6.53
2023-03-17T05:48:30.205Z,6.53
2023-03-17T05:49:29.014Z,6.51
2023-03-17T05:50:29.419Z,6.44
2023-03-17T05:51:28.908Z,6.43
2023-03-17T05:52:28.924Z,6.38
2023-03-17T05:53:28.890Z,6.36
2023-03-17T05:54:28.894Z,6.35
2023-03-17T05:55:28.884Z,6.33
2023-03-17T05:56:28.877Z,6.33
2023-03-17T05:57:28.857Z,6.33
2023-03-17T05:58:28.905Z,6.30
2023-03-17T05:59:28.849Z,6.29
2023-03-17T06:00:29.290Z,6.33
2023-03-17T06:01:28.833Z,6.30
2023-03-17T06:02:28.858Z,6.30
2023-03-17T06:03:28.818Z,6.30
2023-03-17T06:04:28.781Z,6.30
2023-03-17T06:05:28.771Z,6.32
2023-03-17T06:06:28.778Z,6.36
2023-03-17T06:07:38.186Z,6.35
2023-03-17T06:08:28.786Z,6.38
2023-03-17T06:09:28.731Z,6.40
2023-03-17T06:10:29.199Z,6.40
2023-03-17T06:11:28.781Z,6.43
2023-03-17T06:12:28.724Z,6.41
2023-03-17T06:13:28.698Z,6.40
2023-03-17T06:14:28.712Z,6.44
2023-03-17T06:15:28.872Z,6.43
2023-03-17T06:16:28.657Z,6.43
2023-03-17T06:17:28.658Z,6.51
2023-03-17T06:18:28.670Z,6.56
2023-03-17T06:19:28.680Z,6.51
2023-03-17T06:20:28.633Z,6.54
2023-03-17T06:21:28.640Z,6.53
2023-03-17T06:22:28.611Z,6.51
2023-03-17T06:23:28.588Z,6.54
2023-03-17T06:24:28.562Z,6.56
2023-03-17T06:25:28.852Z,6.54
2023-03-17T06:26:28.562Z,6.56
2023-03-17T06:27:28.551Z,6.58
2023-03-17T06:28:28.529Z,6.58
2023-03-17T06:29:28.796Z,6.61
2023-03-17T06:30:28.507Z,6.63
2023-03-17T06:31:28.635Z,6.69
2023-03-17T06:32:28.521Z,6.68
2023-03-17T06:33:28.493Z,6.71
2023-03-17T06:34:28.477Z,6.73
2023-03-17T06:35:28.622Z,6.79
2023-03-17T06:36:28.447Z,6.80
2023-03-17T06:37:28.445Z,6.83
2023-03-17T06:38:28.422Z,6.84
2023-03-17T06:39:28.439Z,6.86
2023-03-17T06:40:28.423Z,6.90
2023-03-17T06:41:28.434Z,6.91
2023-03-17T06:42:28.389Z,6.95
2023-03-17T06:43:28.382Z,6.97
2023-03-17T06:44:28.371Z,6.99
2023-03-17T06:45:28.671Z,7.02
2023-03-17T06:46:28.436Z,7.04
2023-03-17T06:47:28.349Z,7.07
2023-03-17T06:48:28.326Z,7.12
2023-03-17T06:49:28.354Z,7.13
2023-03-17T06:50:28.289Z,7.17
2023-03-17T06:51:28.321Z,7.20
2023-03-17T06:52:28.287Z,7.24
2023-03-17T06:53:28.286Z,7.27
2023-03-17T06:54:28.255Z,7.31
2023-03-17T06:55:28.520Z,7.35
2023-03-17T06:56:30.572Z,7.37
2023-03-17T06:57:28.268Z,7.38
2023-03-17T06:58:28.277Z,7.42
2023-03-17T06:59:28.262Z,7.47
2023-03-17T07:00:28.260Z,7.49
2023-03-17T07:01:28.261Z,7.49
2023-03-17T07:02:28.176Z,7.55
2023-03-17T07:03:28.180Z,7.55
2023-03-17T07:04:28.229Z,7.56
2023-03-17T07:05:28.255Z,7.59
2023-03-17T07:06:28.277Z,7.60
2023-03-17T07:07:28.149Z,7.63
2023-03-17T07:08:28.184Z,7.66
2023-03-17T07:09:28.164Z,7.69
2023-03-17T07:10:28.133Z,7.72
2023-03-17T07:11:28.106Z,7.74
2023-03-17T07:12:28.121Z,7.75
2023-03-17T07:13:28.112Z,7.77
2023-03-17T07:14:28.061Z,7.81
2023-03-17T07:15:28.042Z,7.82
2023-03-17T07:16:28.093Z,7.85
2023-03-17T07:17:28.126Z,7.85
2023-03-17T07:18:28.032Z,7.85
2023-03-17T07:19:27.995Z,7.92
2023-03-17T07:20:28.030Z,7.93
2023-03-17T07:21:28.010Z,7.99
2023-03-17T07:22:28.013Z,8.04
2023-03-17T07:23:28.045Z,8.08
2023-03-17T07:24:27.982Z,8.11
2023-03-17T07:25:27.976Z,8.14
2023-03-17T07:26:27.940Z,8.18
2023-03-17T07:27:28.020Z,8.25
2023-03-17T07:28:27.897Z,8.29
2023-03-17T07:29:27.919Z,8.30
2023-03-17T07:30:27.895Z,8.35
2023-03-17T07:31:27.951Z,8.42
2023-03-17T07:32:27.982Z,8.45
2023-03-17T07:33:27.847Z,8.45
2023-03-17T07:34:27.851Z,8.50
2023-03-17T07:35:27.950Z,8.51
2023-03-17T07:36:27.834Z,8.57
2023-03-17T07:37:27.837Z,8.55
2023-03-17T07:38:27.810Z,8.55
2023-03-17T07:39:27.780Z,8.57
2023-03-17T07:40:27.815Z,8.57
2023-03-17T07:41:27.776Z,8.58
2023-03-17T07:42:27.775Z,8.62
2023-03-17T07:43:27.787Z,8.65
2023-03-17T07:44:27.818Z,8.63
2023-03-17T07:45:27.981Z,8.68
2023-03-17T07:46:27.875Z,8.71
2023-03-17T07:47:27.751Z,8.73
2023-03-17T07:48:38.937Z,8.76
2023-03-17T07:49:40.861Z,8.79
2023-03-17T07:50:27.739Z,8.83
2023-03-17T07:51:27.786Z,8.83
2023-03-17T07:52:27.800Z,8.84
2023-03-17T07:53:27.678Z,8.81
2023-03-17T07:54:27.663Z,8.87
2023-03-17T07:55:27.640Z,8.90
2023-03-17T07:56:27.689Z,8.91
2023-03-17T07:57:27.677Z,8.93
2023-03-17T07:58:27.675Z,8.94
2023-03-17T07:59:27.592Z,8.99
2023-03-17T08:00:27.604Z,9.05
2023-03-17T08:01:27.560Z,9.09
2023-03-17T08:02:27.695Z,9.09
2023-03-17T08:03:27.610Z,9.06
2023-03-17T08:04:27.650Z,9.12
2023-03-17T08:05:27.547Z,9.13
2023-03-17T08:06:27.654Z,9.20
2023-03-17T08:07:27.508Z,9.20
2023-03-17T08:08:27.544Z,9.25
2023-03-17T08:09:27.592Z,9.30
2023-03-17T08:10:27.524Z,9.31
2023-03-17T08:11:29.346Z,9.34
2023-03-17T08:12:27.469Z,9.35
2023-03-17T08:13:27.442Z,9.38
2023-03-17T08:14:27.461Z,9.40
2023-03-17T08:15:27.496Z,9.35
2023-03-17T08:16:27.496Z,9.39
2023-03-17T08:17:27.513Z,9.40
2023-03-17T08:18:27.399Z,9.48
2023-03-17T08:19:27.456Z,9.53
2023-03-17T08:20:27.389Z,9.58
2023-03-17T08:21:27.425Z,9.57
2023-03-17T08:22:27.341Z,9.64
2023-03-17T08:23:27.528Z,9.68
2023-03-17T08:24:27.361Z,9.75
2023-03-17T08:25:27.362Z,9.78
2023-03-17T08:26:27.327Z,9.89
2023-03-17T08:27:27.342Z,9.88
2023-03-17T08:28:27.322Z,9.94
2023-03-17T08:29:27.334Z,9.96
2023-03-17T08:30:27.472Z,9.97
2023-03-17T08:31:27.341Z,9.99
2023-03-17T08:32:27.364Z,9.99
2023-03-17T08:33:27.271Z,10.04
2023-03-17T08:34:27.254Z,10.09
2023-03-17T08:35:27.250Z,10.09
2023-03-17T08:36:27.313Z,10.14
2023-03-17T08:37:27.197Z,10.19
2023-03-17T08:38:27.233Z,10.21
2023-03-17T08:39:27.278Z,10.22
2023-03-17T08:40:27.213Z,10.26
2023-03-17T08:41:27.215Z,10.34
2023-03-17T08:42:27.295Z,10.36
2023-03-17T08:43:27.217Z,10.42
2023-03-17T08:44:27.258Z,10.47
2023-03-17T08:45:27.184Z,10.52
2023-03-17T08:46:27.294Z,10.51
2023-03-17T08:47:27.088Z,10.59
2023-03-17T08:48:27.186Z,10.62
2023-03-17T08:49:27.962Z,10.63
2023-03-17T08:50:27.101Z,10.63
2023-03-17T08:51:27.119Z,10.63
2023-03-17T08:52:27.104Z,10.68
2023-03-17T08:53:27.479Z,10.70
2023-03-17T08:54:27.083Z,10.73
2023-03-17T08:55:28.062Z,10.78
2023-03-17T08:59:33.038Z,10.96
2023-03-17T09:00:34.124Z,11.02
2023-03-17T09:01:34.185Z,11.10
2023-03-17T09:22:44.643Z,11.89
2023-03-17T09:23:45.683Z,11.83
2023-03-17T09:24:45.578Z,11.85
2023-03-17T09:25:45.599Z,11.87
2023-03-17T09:26:45.537Z,11.89
2023-03-17T09:27:45.574Z,11.90
2023-03-17T09:28:45.545Z,12.01
2023-03-17T09:29:45.506Z,12.12
2023-03-17T09:30:45.550Z,12.26
2023-03-17T09:31:45.497Z,12.31
2023-03-17T09:32:45.497Z,12.41
2023-03-17T09:33:45.472Z,12.49
2023-03-17T09:34:46.356Z,12.59
2023-03-17T09:35:45.548Z,12.66
2023-03-17T09:36:45.421Z,12.70
2023-03-17T09:37:45.417Z,12.71
2023-03-17T09:38:45.544Z,12.70
2023-03-17T09:39:45.553Z,12.70
2023-03-17T09:40:45.391Z,12.69
2023-03-17T09:41:45.389Z,12.74
2023-03-17T09:42:45.368Z,12.77
2023-03-17T09:43:45.372Z,12.75
2023-03-17T09:44:45.522Z,12.75
2023-03-17T09:45:45.447Z,12.78
2023-03-17T09:46:45.383Z,12.82
2023-03-17T09:47:45.371Z,12.81
2023-03-17T09:48:45.297Z,12.81
2023-03-17T09:49:45.356Z,12.85
2023-03-17T09:50:45.315Z,12.81
2023-03-17T09:51:45.344Z,12.75
2023-03-17T09:52:45.280Z,12.78
2023-03-17T09:53:45.260Z,12.81
2023-03-17T09:54:45.338Z,12.81
2023-03-17T09:55:45.261Z,12.85
2023-03-17T09:56:45.303Z,12.88
2023-03-17T09:57:45.192Z,12.95
2023-03-17T09:58:45.211Z,12.95
2023-03-17T09:59:45.276Z,12.97
2023-03-17T10:00:45.185Z,12.93
2023-03-17T10:01:45.270Z,12.88
2023-03-17T10:02:45.387Z,12.89
2023-03-17T10:03:45.165Z,13.02
2023-03-17T10:04:45.237Z,13.04
2023-03-17T10:05:45.245Z,13.14
2023-03-17T10:06:45.260Z,13.18
2023-03-17T10:07:45.124Z,13.20
2023-03-17T10:08:45.096Z,13.24
2023-03-17T10:09:45.093Z,13.37
2023-03-17T10:10:45.118Z,13.49
2023-03-17T10:11:45.168Z,13.56
2023-03-17T10:12:56.335Z,13.61
2023-03-17T10:13:45.120Z,13.65
2023-03-17T10:14:45.046Z,13.65
2023-03-17T10:15:45.035Z,13.71
2023-03-17T10:16:45.018Z,13.74
2023-03-17T10:17:45.029Z,13.83
2023-03-17T10:18:45.138Z,13.87
2023-03-17T10:19:44.987Z,13.94
2023-03-17T10:20:45.027Z,13.96
2023-03-17T10:21:45.044Z,13.95
2023-03-17T10:22:44.948Z,13.96
2023-03-17T10:23:44.952Z,14.02
2023-03-17T10:24:45.045Z,14.16
2023-03-17T10:25:45.003Z,14.20
2023-03-17T10:26:44.948Z,14.27
2023-03-17T10:27:44.877Z,14.31
2023-03-17T10:28:44.928Z,14.34
2023-03-17T10:29:47.886Z,14.32
2023-03-17T10:30:44.882Z,14.25
2023-03-17T10:31:44.916Z,14.32
2023-03-17T10:32:44.890Z,14.25
2023-03-17T10:33:44.844Z,14.32
2023-03-17T10:34:44.879Z,14.29
2023-03-17T10:35:44.899Z,14.25
2023-03-17T10:36:44.878Z,14.28
2023-03-17T10:37:44.816Z,14.32
2023-03-17T10:38:44.778Z,14.38
2023-03-17T10:39:44.764Z,14.35
2023-03-17T10:40:44.760Z,14.38
2023-03-17T10:41:44.755Z,14.46
2023-03-17T10:42:44.739Z,14.39
2023-03-17T10:43:44.737Z,14.39
2023-03-17T10:44:44.753Z,14.47
2023-03-17T10:45:45.309Z,14.52
2023-03-17T10:46:44.766Z,14.47
2023-03-17T10:47:44.704Z,14.56
2023-03-17T10:48:44.702Z,14.62
2023-03-17T10:49:44.655Z,14.69
2023-03-17T10:50:44.648Z,14.78
2023-03-17T10:51:44.637Z,14.88
2023-03-17T10:52:44.642Z,14.78
2023-03-17T10:53:44.645Z,14.74
2023-03-17T10:54:44.611Z,14.83
2023-03-17T10:55:44.631Z,14.90
2023-03-17T10:56:44.660Z,14.88
2023-03-17T10:57:44.566Z,14.88
2023-03-17T10:58:44.574Z,14.91
2023-03-17T10:59:44.883Z,14.98
2023-03-17T11:00:44.640Z,14.94
2023-03-17T11:01:44.541Z,14.99
2023-03-17T11:02:44.552Z,14.99
2023-03-17T11:03:44.555Z,15.02
2023-03-17T11:04:44.547Z,14.98
2023-03-17T11:05:44.565Z,14.98
2023-03-17T11:06:44.578Z,14.99
2023-03-17T11:07:44.477Z,14.94
2023-03-17T11:08:44.496Z,15.02
2023-03-17T11:09:44.455Z,15.02
2023-03-17T11:10:44.447Z,15.09
2023-03-17T11:11:44.459Z,15.15
2023-03-17T11:12:44.425Z,15.24
2023-03-17T11:13:44.474Z,15.20
2023-03-17T11:14:44.425Z,15.12
2023-03-17T11:15:44.408Z,15.09
2023-03-17T11:16:44.454Z,15.15
2023-03-17T11:17:44.375Z,15.13
2023-03-17T11:18:44.368Z,15.20
2023-03-17T11:19:44.350Z,15.11
2023-03-17T11:20:44.404Z,15.12
2023-03-17T11:21:44.365Z,15.09
2023-03-17T11:22:44.469Z,15.12
2023-03-17T11:23:44.333Z,15.13
2023-03-17T11:24:44.308Z,15.23
2023-03-17T11:25:44.275Z,15.30
2023-03-17T11:26:44.274Z,15.31
2023-03-17T11:27:44.260Z,15.36
2023-03-17T11:28:44.266Z,15.42
2023-03-17T11:29:44.240Z,15.49
2023-03-17T11:30:44.251Z,15.54
2023-03-17T11:31:44.233Z,15.68
2023-03-17T11:32:44.281Z,15.74
2023-03-17T11:33:44.201Z,15.84
2023-03-17T11:34:44.213Z,15.86
2023-03-17T11:35:44.210Z,15.89
2023-03-17T11:36:44.173Z,15.96
2023-03-17T11:37:44.333Z,16.07
2023-03-17T11:38:44.143Z,16.12
2023-03-17T11:39:44.170Z,16.09
2023-03-17T11:40:44.114Z,16.04
2023-03-17T11:41:44.116Z,15.99
2023-03-17T11:42:44.130Z,15.96
2023-03-17T11:43:44.074Z,15.89
2023-03-17T11:44:44.090Z,16.00
2023-03-17T11:45:44.290Z,15.96
2023-03-17T11:46:47.137Z,15.85
2023-03-17T11:55:53.614Z,15.82
2023-03-17T11:56:52.312Z,15.84
2023-03-17T11:57:52.265Z,15.89
2023-03-17T11:58:52.228Z,15.88
2023-03-17T11:59:52.144Z,15.92
2023-03-17T12:00:52.187Z,15.88
2023-03-17T12:01:52.350Z,15.85
2023-03-17T12:02:52.070Z,15.85
2023-03-17T12:03:52.238Z,15.84
2023-03-17T12:04:52.188Z,15.88
2023-03-17T12:05:52.072Z,15.89
2023-03-17T12:06:52.100Z,15.86
2023-03-17T12:07:52.075Z,15.81
2023-03-17T12:08:52.000Z,15.81
2023-03-17T12:09:51.996Z,15.81
2023-03-17T12:10:52.063Z,15.89
2023-03-17T12:11:52.054Z,15.88
2023-03-17T12:12:51.974Z,15.92
2023-03-17T12:13:51.957Z,15.89
2023-03-17T12:14:51.964Z,15.92
2023-03-17T12:15:52.071Z,15.93
2023-03-17T12:16:51.909Z,15.89
2023-03-17T12:17:51.993Z,15.88
2023-03-17T12:18:51.896Z,15.94
2023-03-17T12:19:51.897Z,15.92
2023-03-17T12:20:51.893Z,15.92
2023-03-17T12:21:51.902Z,15.88
2023-03-17T12:22:51.922Z,15.88
2023-03-17T12:23:51.866Z,15.88
2023-03-17T12:24:51.936Z,15.82
2023-03-17T12:25:51.829Z,15.88
2023-03-17T12:26:51.826Z,15.94
2023-03-17T12:27:51.829Z,15.93
2023-03-17T12:28:51.769Z,16.01
2023-03-17T12:29:51.787Z,16.12
2023-03-17T12:30:51.807Z,16.09
2023-03-17T12:31:51.742Z,16.18
2023-03-17T12:32:51.815Z,16.25
2023-03-17T12:33:51.823Z,16.37
2023-03-17T12:34:51.702Z,16.37
2023-03-17T12:35:51.700Z,16.41
2023-03-17T12:36:51.734Z,16.42
2023-03-17T12:37:51.719Z,16.48
2023-03-17T12:38:51.687Z,16.42
2023-03-17T12:39:51.677Z,16.41
2023-03-17T12:40:51.809Z,16.33
2023-03-17T12:41:51.662Z,16.25
2023-03-17T12:42:51.651Z,16.18
2023-03-17T12:43:51.656Z,16.20
2023-03-17T12:44:51.629Z,16.18
2023-03-17T12:45:53.875Z,16.18
2023-03-17T12:46:51.610Z,16.25
2023-03-17T12:48:00.618Z,16.30
2023-03-17T12:48:51.561Z,16.37
2023-03-17T12:49:51.660Z,16.48
2023-03-17T12:50:51.548Z,16.53
2023-03-17T12:51:51.678Z,16.58
2023-03-17T12:52:51.517Z,16.63
2023-03-17T12:53:51.555Z,16.65
2023-03-17T12:54:51.578Z,16.65
2023-03-17T12:55:52.054Z,16.62
2023-03-17T12:56:51.456Z,16.58
2023-03-17T12:57:51.489Z,16.60
2023-03-17T12:58:51.469Z,16.52
2023-03-17T12:59:51.465Z,16.49
2023-03-17T13:00:51.429Z,16.40
2023-03-17T13:01:51.430Z,16.34
2023-03-17T13:02:51.486Z,16.27
2023-03-17T13:03:51.431Z,16.34
2023-03-17T13:04:51.373Z,16.38
2023-03-17T13:05:51.841Z,16.44
2023-03-17T13:09:31.986Z,16.23
2023-03-17T13:10:32.692Z,16.23
2023-03-17T13:11:32.633Z,16.25
2023-03-17T13:12:32.606Z,16.27
2023-03-17T13:13:32.605Z,16.25
2023-03-17T13:14:32.585Z,16.20
2023-03-17T13:15:33.028Z,16.18
2023-03-17T13:16:32.639Z,16.22
2023-03-17T13:17:32.570Z,16.20
2023-03-17T13:18:32.619Z,16.16
2023-03-17T13:19:32.547Z,16.16
2023-03-17T13:20:32.522Z,16.04
2023-03-17T13:21:35.347Z,15.97
2023-03-17T13:22:32.509Z,15.96
2023-03-17T13:23:32.512Z,15.88
2023-03-17T13:24:32.500Z,15.88
2023-03-17T13:25:33.048Z,15.99
2023-03-17T13:26:32.456Z,15.88
2023-03-17T13:27:32.460Z,15.94
2023-03-17T13:28:32.447Z,15.94
2023-03-17T13:29:32.425Z,15.92
2023-03-17T13:30:32.774Z,15.93
2023-03-17T13:31:32.482Z,15.96
2023-03-17T13:32:32.472Z,15.97
2023-03-17T13:33:32.380Z,16.00
2023-03-17T13:34:32.369Z,15.96
2023-03-17T13:35:32.713Z,15.94
2023-03-17T13:36:32.381Z,16.04
2023-03-17T13:37:32.991Z,16.04
2023-03-17T13:38:33.636Z,16.06
2023-03-17T13:39:32.306Z,16.01
2023-03-17T13:40:32.786Z,16.06
2023-03-17T13:41:32.322Z,16.12
2023-03-17T13:42:32.354Z,16.15
2023-03-17T13:43:32.338Z,16.12